createdAt,value
2022-12-09T00:02:26.745Z,2.8
2022-12-09T00:08:37.506Z,2.9
2022-12-09T00:14:47.950Z,2.8
2022-12-09T00:20:58.581Z,2.8
2022-12-09T00:27:09.258Z,2.9
2022-12-09T00:33:20.142Z,3
2022-12-09T00:39:30.577Z,2.9
2022-12-09T00:45:41.450Z,2.8
2022-12-09T00:51:52.130Z,2.8
2022-12-09T00:57:54.566Z,2.7
2022-12-09T01:04:05.341Z,2.5
2022-12-09T01:10:15.986Z,2.7
2022-12-09T01:16:26.695Z,2.7
2022-12-09T01:22:37.363Z,2.8
2022-12-09T01:28:47.712Z,2.9
2022-12-09T01:34:58.417Z,2.9
2022-12-09T01:41:09.031Z,3
2022-12-09T01:47:19.753Z,2.8
2022-12-09T01:53:30.336Z,2.6
2022-12-09T01:59:32.916Z,2.6
2022-12-09T02:05:43.535Z,2.8
2022-12-09T02:10:56.614Z,2.8
2022-12-09T02:17:07.200Z,2.9
2022-12-09T02:23:17.768Z,3
2022-12-09T02:29:28.402Z,3
2022-12-09T02:36:53.355Z,3.1
2022-12-09T02:43:04.093Z,2.8
2022-12-09T02:49:22.925Z,2.9
2022-12-09T02:55:33.628Z,2.7
2022-12-09T03:01:35.995Z,2.6
2022-12-09T03:07:46.915Z,2.4
2022-12-09T03:13:57.221Z,2.4
2022-12-09T03:20:08.505Z,2.4
2022-12-09T03:26:18.527Z,2.4
2022-12-09T03:32:29.254Z,2.7
2022-12-09T03:38:40.208Z,2.8
2022-12-09T03:44:50.581Z,2.7
2022-12-09T03:51:01.261Z,2.6
2022-12-09T03:57:17.008Z,2.8
2022-12-09T04:03:14.773Z,2.8
2022-12-09T04:09:25.316Z,2.4
2022-12-09T04:15:36.041Z,2.4
2022-12-09T04:21:46.625Z,2.6
2022-12-09T04:27:57.117Z,2.4
2022-12-09T04:34:09.697Z,2.3
2022-12-09T04:39:20.623Z,2.4
2022-12-09T04:45:31.251Z,2.4
2022-12-09T04:51:42.254Z,2.4
2022-12-09T04:57:52.556Z,2.6
2022-12-09T05:03:55.489Z,2.5
2022-12-09T05:10:06.523Z,2.4
2022-12-09T05:16:17.419Z,2.3
2022-12-09T05:22:27.234Z,2.4
2022-12-09T05:28:37.820Z,2
2022-12-09T05:34:48.614Z,2
2022-12-09T05:40:59.054Z,2
2022-12-09T05:47:10.000Z,2.1
2022-12-09T05:53:20.477Z,2.1
2022-12-09T05:59:31.176Z,1.8
2022-12-09T06:05:33.776Z,1.8
2022-12-09T06:11:44.366Z,1.7
2022-12-09T06:17:55.116Z,1.7
2022-12-09T06:24:05.589Z,1.6
2022-12-09T06:30:16.275Z,1.7
2022-12-09T06:36:27.070Z,1.5
2022-12-09T06:42:37.661Z,1.1
2022-12-09T06:48:48.484Z,0.9
2022-12-09T06:54:58.814Z,1
2022-12-09T07:01:09.612Z,1
2022-12-09T07:07:36.828Z,1
2022-12-09T07:13:47.300Z,0.7
2022-12-09T07:20:03.397Z,0.8
2022-12-09T07:26:08.757Z,1.1
2022-12-09T07:32:19.352Z,1.1
2022-12-09T07:38:29.897Z,1.3
2022-12-09T07:44:40.661Z,1.2
2022-12-09T07:50:51.421Z,1.3
2022-12-09T07:57:02.307Z,1.5
2022-12-09T08:03:04.556Z,1.8
2022-12-09T08:09:15.632Z,1.8
2022-12-09T08:15:25.688Z,2.3
2022-12-09T08:21:36.811Z,2.4
2022-12-09T08:27:47.070Z,2.6
2022-12-09T08:33:57.988Z,2.8
2022-12-09T08:40:08.917Z,3
2022-12-09T08:46:19.556Z,3.3
2022-12-09T08:52:30.808Z,3.3
2022-12-09T08:58:40.473Z,3.2
2022-12-09T09:04:43.472Z,3.2
2022-12-09T09:10:53.607Z,2.7
2022-12-09T09:17:04.411Z,3
2022-12-09T09:23:15.128Z,2.9
2022-12-09T09:29:25.618Z,2.9
2022-12-09T09:35:36.141Z,3.3
2022-12-09T09:40:49.377Z,3.9
2022-12-09T09:47:00.302Z,4.4
2022-12-09T09:53:10.402Z,4.3
2022-12-09T09:59:21.332Z,4.2
2022-12-09T10:05:24.200Z,4.6
2022-12-09T10:11:34.480Z,4.6
2022-12-09T10:17:45.099Z,4.9
2022-12-09T10:23:55.774Z,5.3
2022-12-09T10:30:07.027Z,5.3
2022-12-09T10:36:16.813Z,5.1
2022-12-09T10:42:34.625Z,4.7
2022-12-09T10:48:38.751Z,4.8
2022-12-09T10:54:49.647Z,4.6
2022-12-09T11:01:00.625Z,4.5
2022-12-09T11:07:10.261Z,4.8
2022-12-09T11:13:20.945Z,5.3
2022-12-09T11:19:31.745Z,5.9
2022-12-09T11:25:42.590Z,6.5
2022-12-09T11:31:53.168Z,7.1
2022-12-09T11:38:03.485Z,8.4
2022-12-09T11:44:14.126Z,8.8
2022-12-09T11:50:24.892Z,8.6
2022-12-09T11:56:35.497Z,8.8
2022-12-09T12:02:46.206Z,8.5
2022-12-09T12:07:50.846Z,8.5
2022-12-09T12:14:01.536Z,8.6
2022-12-09T12:20:12.196Z,8.6
2022-12-09T14:54:22.591Z,4.5
2022-12-09T14:59:35.350Z,4.5
2022-12-09T15:05:37.823Z,4.1
2022-12-09T15:11:48.484Z,4.2
2022-12-09T15:16:53.210Z,4.1
2022-12-09T15:23:03.869Z,3.8
2022-12-09T15:29:14.549Z,3.5
2022-12-09T15:35:25.198Z,3.6
2022-12-09T15:41:35.841Z,3.7
2022-12-09T15:47:46.567Z,3.8
2022-12-09T15:53:57.192Z,3.8
2022-12-09T16:00:07.917Z,3.8
2022-12-09T16:06:10.356Z,3.6
2022-12-09T16:12:20.989Z,3.2
2022-12-09T16:18:31.708Z,3.2
2022-12-09T16:25:13.106Z,3.5
2022-12-09T16:30:52.997Z,3.2
2022-12-09T16:37:09.306Z,3.1
2022-12-09T16:43:14.322Z,3.1
2022-12-09T16:49:25.095Z,2.6
2022-12-09T16:55:35.654Z,2.4
2022-12-09T17:01:46.418Z,2.4
2022-12-09T17:07:48.845Z,2.5
2022-12-09T17:13:59.458Z,2.3
2022-12-09T17:20:10.162Z,2.3
2022-12-09T17:25:23.048Z,2.1
2022-12-09T17:31:33.737Z,2
2022-12-09T17:37:44.382Z,1.8
2022-12-09T17:43:55.021Z,1.8
2022-12-09T17:50:06.173Z,1.9
2022-12-09T17:56:16.527Z,1.8
2022-12-09T18:02:27.099Z,1.7
2022-12-09T18:08:29.848Z,1.5
2022-12-09T18:14:40.184Z,1.7
2022-12-09T18:20:50.838Z,1.8
2022-12-09T18:27:01.489Z,1.6
2022-12-09T18:33:12.204Z,1.4
2022-12-09T18:39:22.804Z,1.2
2022-12-09T18:45:33.501Z,1.2
2022-12-09T18:51:44.178Z,1.1
2022-12-09T18:57:54.817Z,1.1
2022-12-09T19:04:05.501Z,1.1
2022-12-09T19:10:08.149Z,1
2022-12-09T19:16:18.643Z,0.9
2022-12-09T19:22:37.451Z,0.9
2022-12-09T19:28:48.165Z,1
2022-12-09T19:34:58.796Z,0.8
2022-12-09T19:41:09.444Z,0.7
2022-12-09T19:47:20.164Z,0.7
2022-12-09T19:53:30.943Z,0.7
2022-12-09T19:58:43.706Z,0.5
2022-12-09T20:04:54.419Z,0.6
2022-12-09T20:10:56.849Z,0.6
2022-12-09T20:17:07.530Z,0.4
2022-12-09T20:23:18.205Z,0.5
2022-12-09T20:29:32.573Z,0.4
2022-12-09T20:35:39.506Z,0.3
2022-12-09T20:41:50.194Z,0.3
2022-12-09T20:48:00.828Z,0.2
2022-12-09T20:54:11.561Z,0.2
2022-12-09T21:00:22.199Z,0.3
2022-12-09T21:06:32.851Z,0.3
2022-12-09T21:12:35.303Z,0.4
2022-12-09T21:18:45.986Z,0.1
2022-12-09T21:24:56.632Z,0.1
2022-12-09T21:31:07.447Z,-0.3
2022-12-09T21:37:17.965Z,-0.4
2022-12-09T21:43:28.683Z,-0.6
2022-12-09T21:49:39.316Z,-0.4
2022-12-09T21:55:49.996Z,-0.6
2022-12-09T22:02:00.666Z,-0.5
2022-12-09T22:08:03.160Z,-0.4
2022-12-09T22:14:13.803Z,-0.5
2022-12-09T22:21:16.110Z,-0.3
2022-12-09T22:25:37.344Z,-0.3
2022-12-09T22:31:48.009Z,-0.5
2022-12-09T22:37:59.420Z,-0.5
2022-12-09T22:44:09.339Z,-0.3
2022-12-09T22:50:20.032Z,-0.3
2022-12-09T22:56:30.677Z,-0.2
2022-12-09T23:02:41.421Z,-0.3
2022-12-09T23:08:52.042Z,-0.5
2022-12-09T23:14:54.462Z,-0.5
2022-12-09T23:21:05.124Z,-0.4
2022-12-09T23:27:15.815Z,-0.2
2022-12-09T23:32:20.507Z,-0.3
2022-12-09T23:38:31.192Z,-0.3
2022-12-09T23:44:41.860Z,-0.3
2022-12-09T23:50:52.531Z,-0.4
2022-12-09T23:57:03.192Z,-0.5
